Time;durP1;ratioP1;P1;durP2;ratioP2;P2;SDS_P1;SDS_P2;PMS_P1;PMS_P2;Temp;Humidity;BMP_temperature;BMP_pressure;BME280_temperature;BME280_humidity;BME280_pressure;Samples;Min_cycle;Max_cycle;Signal;HPM_P1;HPM_P2
2021/04/13 00:01:13;;;;;;;4.72;2.60;;;;;;;11.80;81.43;100352.91;5052919;28;20036;-74
2021/04/13 00:03:43;;;;;;;4.90;2.70;;;;;;;11.68;82.25;100350.28;5052667;28;20396;-74
2021/04/13 00:06:13;;;;;;;6.70;2.58;;;;;;;11.64;82.30;100349.41;5053019;28;20021;-75
2021/04/13 00:08:42;;;;;;;8.07;3.45;;;;;;;11.68;82.53;100372.56;5037215;28;20467;-74
2021/04/13 00:11:30;;;;;;;5.22;2.72;;;;;;;11.67;82.57;100363.41;5052826;28;20044;-75
2021/04/13 00:14:02;;;;;;;4.10;2.70;;;;;;;11.67;82.35;100365.41;5052858;28;20025;-74
2021/04/13 00:16:30;;;;;;;2.92;2.60;;;;;;;11.66;82.87;100369.34;5052774;28;20035;-74
2021/04/13 00:19:20;;;;;;;5.35;2.72;;;;;;;11.39;81.63;100349.66;5034979;28;20041;-74
2021/04/13 00:21:56;;;;;;;8.57;4.18;;;;;;;11.45;82.49;100387.22;5053948;28;20035;-75
2021/04/13 00:24:29;;;;;;;7.70;3.03;;;;;;;11.48;83.17;100380.91;5051763;28;20053;-74
2021/04/13 00:27:09;;;;;;;8.55;3.47;;;;;;;11.66;82.09;100316.38;5053681;28;20174;-73
2021/04/13 00:29:53;;;;;;;6.95;3.28;;;;;;;11.40;84.26;100329.00;5054514;28;20033;-73
2021/04/13 00:32:32;;;;;;;7.05;3.63;;;;;;;11.32;84.76;100362.63;5056380;28;20025;-74
2021/04/13 00:38:28;;;;;;;7.88;4.43;;;;;;;11.25;85.61;100364.09;4961386;28;20379;-74
2021/04/13 00:41:17;;;;;;;7.28;3.60;;;;;;;11.32;86.29;100370.97;4975270;28;20401;-74
2021/04/13 00:44:22;;;;;;;7.93;4.25;;;;;;;11.37;86.79;100365.94;5052386;28;20475;-75
2021/04/13 00:47:08;;;;;;;6.57;3.83;;;;;;;11.32;85.88;100357.06;5049337;28;20041;-75
2021/04/13 00:49:54;;;;;;;6.63;3.08;;;;;;;11.20;84.85;100352.41;5052841;28;20047;-75
2021/04/13 00:52:28;;;;;;;4.45;2.78;;;;;;;11.22;84.43;100350.06;5052437;28;20040;-75
2021/04/13 00:54:58;;;;;;;4.78;3.42;;;;;;;11.36;84.56;100353.19;5052358;28;20017;-75
2021/04/13 00:57:29;;;;;;;7.35;3.80;;;;;;;11.34;84.66;100344.38;5053332;28;20033;-75
2021/04/13 01:00:17;;;;;;;6.97;3.33;;;;;;;11.37;84.52;100335.28;5052953;28;20044;-74
2021/04/13 01:02:47;;;;;;;7.68;2.85;;;;;;;11.39;84.10;100316.22;5037138;28;20094;-74
2021/04/13 01:05:20;;;;;;;7.25;2.97;;;;;;;11.51;84.40;100318.88;5052423;28;20479;-74
2021/04/13 01:08:20;;;;;;;4.50;3.47;;;;;;;11.43;84.06;100319.09;5052757;28;20364;-74
2021/04/13 01:10:46;;;;;;;5.28;3.33;;;;;;;11.40;83.98;100309.50;5038257;28;20025;-75
2021/04/13 01:13:44;;;;;;;3.95;2.95;;;;;;;11.46;82.26;100305.25;5052559;28;20037;-75
2021/04/13 01:16:14;;;;;;;10.20;2.45;;;;;;;11.47;81.15;100304.06;5018548;28;20033;-75
2021/04/13 01:18:46;;;;;;;3.17;2.40;;;;;;;11.36;80.39;100311.38;5052878;28;20087;-75
2021/04/13 01:21:42;;;;;;;4.45;3.05;;;;;;;11.44;82.12;100309.56;5052165;28;20467;-75
2021/04/13 01:24:13;;;;;;;4.45;2.83;;;;;;;11.32;80.74;100307.72;5051010;28;20084;-75
2021/04/13 01:26:44;;;;;;;4.20;3.30;;;;;;;11.24;81.13;100298.41;5053793;28;20025;-75
2021/04/13 01:29:10;;;;;;;3.97;3.17;;;;;;;11.30;81.90;100273.88;5052315;28;20053;-75
2021/04/13 01:34:52;;;;;;;8.55;2.70;;;;;;;11.26;79.08;100270.19;5054386;28;20188;-74
2021/04/13 01:37:45;;;;;;;6.20;2.63;;;;;;;11.35;79.79;100284.72;5058951;28;20029;-74
2021/04/13 01:40:21;;;;;;;5.07;2.70;;;;;;;11.25;79.34;100283.31;5056963;28;20057;-73
2021/04/13 01:42:50;;;;;;;4.05;2.53;;;;;;;11.31;79.42;100272.69;5055611;28;20025;-74
2021/04/13 01:45:30;;;;;;;3.65;2.30;;;;;;;11.38;78.54;100267.25;5055522;28;20033;-74
2021/04/13 01:48:14;;;;;;;3.97;2.45;;;;;;;11.36;77.85;100255.69;5055355;28;20475;-75
2021/04/13 01:50:43;;;;;;;2.83;2.45;;;;;;;11.25;78.53;100254.66;5055375;28;20037;-75
2021/04/13 01:56:40;;;;;;;3.53;2.83;;;;;;;11.36;79.92;100238.97;5055878;28;20095;-75
2021/04/13 01:59:34;;;;;;;3.80;2.63;;;;;;;11.45;80.49;100241.50;5055274;28;20017;-75
2021/04/13 02:02:12;;;;;;;3.20;2.30;;;;;;;11.36;80.09;100241.75;5047097;28;20037;-74
2021/04/13 02:04:48;;;;;;;3.92;3.13;;;;;;;11.62;80.62;100246.66;5055789;28;20025;-74
2021/04/13 02:08:25;;;;;;;3.33;2.88;;;;;;;11.58;80.08;100236.59;5056269;28;20033;-74
2021/04/13 02:10:56;;;;;;;4.25;2.33;;;;;;;11.34;76.13;100226.56;5056044;28;20036;-74
2021/04/13 02:13:48;;;;;;;3.00;2.15;;;;;;;11.34;76.15;100235.72;5055387;28;20041;-75
2021/04/13 02:16:34;;;;;;;4.95;2.53;;;;;;;11.37;76.64;100231.41;5056578;28;20086;-75
2021/04/13 02:19:07;;;;;;;3.83;2.03;;;;;;;11.35;76.42;100233.78;5055682;28;20025;-74
2021/04/13 02:21:45;;;;;;;;;;;;;;;11.42;77.00;100214.41;5055315;28;20021;-74
2021/04/13 02:24:16;;;;;;;3.05;2.42;;;;;;;11.35;77.27;100223.44;5054738;28;20024;-74
2021/04/13 02:27:07;;;;;;;18.48;9.98;;;;;;;11.49;78.36;100232.06;5056108;28;20379;-74
2021/04/13 02:29:38;;;;;;;8.75;7.13;;;;;;;11.57;79.04;100232.22;5056672;28;20055;-74
2021/04/13 02:32:25;;;;;;;6.28;3.97;;;;;;;11.57;79.40;100235.81;5056167;28;20035;-74
2021/04/13 02:35:13;;;;;;;3.22;2.80;;;;;;;11.49;78.85;100240.41;5055556;28;20138;-74
2021/04/13 02:37:44;;;;;;;6.30;4.22;;;;;;;11.53;79.13;100244.09;5056078;28;20501;-75
2021/04/13 02:40:13;;;;;;;6.03;3.95;;;;;;;11.61;79.85;100247.00;5041536;28;20052;-74
2021/04/13 02:42:46;;;;;;;4.53;3.88;;;;;;;11.43;79.79;100236.31;5054814;28;20112;-75
2021/04/13 02:45:32;;;;;;;6.97;5.28;;;;;;;11.47;80.07;100239.97;5054508;28;20035;-75
2021/04/13 02:48:05;;;;;;;4.68;4.18;;;;;;;11.42;80.09;100248.63;5053498;28;20033;-75
2021/04/13 02:50:33;;;;;;;;;;;;;;;11.36;80.19;100246.53;5054707;28;20039;-74
2021/04/13 02:53:04;;;;;;;3.67;2.80;;;;;;;11.40;80.07;100248.22;5054037;28;20413;-74
2021/04/13 02:55:48;;;;;;;5.97;2.88;;;;;;;11.43;79.92;100249.44;5054887;28;20033;-75
2021/04/13 02:58:34;;;;;;;4.93;4.38;;;;;;;11.46;80.40;100255.09;5055185;28;20086;-75
2021/04/13 03:01:00;;;;;;;6.90;4.13;;;;;;;11.54;80.57;100245.69;5054108;28;20035;-75
2021/04/13 03:04:02;;;;;;;5.78;2.78;;;;;;;11.68;78.69;100261.91;5054055;28;20460;-75
2021/04/13 03:06:28;;;;;;;4.25;2.45;;;;;;;11.72;79.58;100256.41;5041306;28;20044;-74
2021/04/13 03:08:58;;;;;;;5.55;2.25;;;;;;;11.60;79.82;100251.78;5054250;28;20102;-74
2021/04/13 03:11:47;;;;;;;7.75;3.55;;;;;;;11.40;79.38;100225.09;5053968;28;20025;-74
2021/04/13 03:14:21;;;;;;;7.32;2.97;;;;;;;11.45;80.43;100247.09;5054878;28;20040;-74
2021/04/13 03:17:02;;;;;;;5.90;2.30;;;;;;;11.37;80.52;100246.16;5054487;28;20033;-75
2021/04/13 03:19:49;;;;;;;7.30;2.83;;;;;;;11.33;80.16;100245.25;5054117;28;20048;-75
2021/04/13 03:22:18;;;;;;;7.40;2.72;;;;;;;11.30;80.84;100254.38;5053938;28;20087;-74
2021/04/13 03:24:50;;;;;;;8.63;2.80;;;;;;;11.31;81.38;100258.75;5053255;28;20052;-74
2021/04/13 03:30:28;;;;;;;11.25;3.17;;;;;;;11.25;81.70;100263.00;5055192;28;20047;-74
2021/04/13 03:33:18;;;;;;;11.55;3.20;;;;;;;11.29;82.07;100263.88;5055607;28;20035;-75
2021/04/13 03:35:49;;;;;;;8.75;3.67;;;;;;;11.38;78.83;100264.47;5052955;28;20122;-74
2021/04/13 03:38:23;;;;;;;8.50;2.55;;;;;;;11.34;78.01;100257.19;5053193;28;20043;-74
2021/04/13 03:40:51;;;;;;;6.88;2.70;;;;;;;11.46;75.27;100271.00;5053800;28;20032;-74
2021/04/13 03:43:25;;;;;;;5.20;2.17;;;;;;;11.34;76.63;100273.91;5054959;28;20036;-75
2021/04/13 03:45:55;;;;;;;7.13;2.17;;;;;;;11.33;74.55;100278.69;5053928;28;20475;-75
2021/04/13 03:48:36;;;;;;;5.63;1.65;;;;;;;11.21;74.78;100279.63;5054035;28;20029;-75
2021/04/13 03:51:12;;;;;;;6.60;2.70;;;;;;;11.09;76.16;100276.19;5051638;28;20393;-74
2021/04/13 03:53:44;;;;;;;7.13;2.65;;;;;;;11.07;80.17;100276.53;5053867;28;20025;-75
2021/04/13 03:56:49;;;;;;;7.72;2.90;;;;;;;10.99;81.85;100281.13;5055465;28;20080;-75
2021/04/13 03:59:25;;;;;;;;;;;;;;;10.83;82.43;100283.16;5055057;28;20544;-75
2021/04/13 04:01:54;;;;;;;14.07;2.78;;;;;;;10.72;83.22;100284.88;5054411;28;19967;-75
2021/04/13 04:04:33;;;;;;;11.48;4.18;;;;;;;10.77;83.10;100279.03;5054656;28;20037;-75
2021/04/13 04:07:33;;;;;;;7.35;3.60;;;;;;;10.97;82.94;100291.00;5052946;28;20040;-75
2021/04/13 04:10:04;;;;;;;5.10;2.58;;;;;;;10.92;83.40;100289.34;5053733;28;20368;-73
2021/04/13 04:12:31;;;;;;;7.28;3.70;;;;;;;10.74;83.40;100263.84;5052813;28;20109;-74
2021/04/13 04:15:26;;;;;;;8.93;2.63;;;;;;;10.93;83.40;100299.31;5054669;28;20036;-74
2021/04/13 04:17:59;;;;;;;6.50;2.95;;;;;;;10.82;81.98;100297.44;5044724;28;20044;-73
2021/04/13 04:20:35;;;;;;;7.82;3.10;;;;;;;10.81;82.30;100295.81;5052697;28;20391;-74
2021/04/13 04:23:24;;;;;;;12.80;2.97;;;;;;;10.82;80.77;100297.44;5051922;28;20083;-73
2021/04/13 04:26:00;;;;;;;14.05;3.17;;;;;;;10.52;79.97;100277.63;5054314;28;20025;-73
2021/04/13 04:28:49;;;;;;;4.70;2.05;;;;;;;10.75;78.65;100310.00;5052938;28;20035;-74
2021/04/13 04:31:41;;;;;;;10.82;2.88;;;;;;;10.75;80.24;100312.78;5042407;28;20029;-74
2021/04/13 04:37:14;;;;;;;8.93;3.00;;;;;;;10.47;81.28;100304.53;5053827;28;20043;-74
2021/04/13 04:39:43;;;;;;;7.75;2.95;;;;;;;10.42;81.78;100318.72;5036294;28;20033;-74
2021/04/13 04:42:28;;;;;;;10.13;2.97;;;;;;;10.45;81.55;100322.78;5052452;28;20027;-74
2021/04/13 04:45:15;;;;;;;12.20;3.92;;;;;;;10.19;82.30;100301.00;5053515;28;20116;-74
2021/04/13 04:47:43;;;;;;;9.23;3.35;;;;;;;10.36;82.41;100330.47;5039481;28;20037;-74
2021/04/13 04:50:12;;;;;;;7.13;3.05;;;;;;;10.33;81.72;100331.19;5036771;28;20045;-75
2021/04/13 04:52:38;;;;;;;8.20;3.17;;;;;;;10.36;78.28;100327.69;5052622;28;20128;-75
2021/04/13 04:55:05;;;;;;;12.65;3.05;;;;;;;10.50;73.22;100330.84;5052383;28;20037;-75
2021/04/13 04:57:31;;;;;;;7.00;3.15;;;;;;;10.40;72.47;100334.97;5052517;28;20063;-75
2021/04/13 04:59:57;;;;;;;7.63;2.72;;;;;;;10.39;72.71;100340.91;5052505;28;20060;-75
2021/04/13 05:02:46;;;;;;;12.23;3.67;;;;;;;10.37;73.64;100340.44;5053058;28;20044;-77
2021/04/13 05:08:10;;;;;;;7.55;2.90;;;;;;;10.48;72.97;100333.97;5052243;28;20036;-75
2021/04/13 05:10:39;;;;;;;6.75;1.63;;;;;;;10.43;72.52;100331.47;5038676;28;20033;-75
2021/04/13 05:13:05;;;;;;;4.45;2.58;;;;;;;10.53;72.54;100341.25;5056315;28;20033;-75
2021/04/13 05:15:33;;;;;;;8.65;5.03;;;;;;;10.58;73.92;100337.38;5056221;28;20029;-75
2021/04/13 05:18:02;;;;;;;10.32;4.38;;;;;;;10.72;73.55;100337.75;5056337;28;20033;-75
2021/04/13 05:20:30;;;;;;;7.03;2.92;;;;;;;10.68;72.81;100336.84;5057473;28;20079;-75
2021/04/13 05:22:59;;;;;;;9.18;2.70;;;;;;;10.64;72.28;100336.75;5055811;28;20033;-75
2021/04/13 05:25:30;;;;;;;8.15;2.65;;;;;;;10.80;73.17;100328.41;5056470;28;20036;-75
2021/04/13 05:27:56;;;;;;;10.05;4.38;;;;;;;10.83;72.14;100338.81;5055343;28;20037;-75
2021/04/13 05:30:26;;;;;;;8.00;2.97;;;;;;;10.81;72.87;100330.00;5055462;28;20101;-75
2021/04/13 05:32:52;;;;;;;7.78;2.65;;;;;;;10.91;71.98;100351.72;5056939;28;20080;-75
2021/04/13 05:35:29;;;;;;;6.35;2.15;;;;;;;10.83;72.63;100324.91;5057249;28;20103;-75
2021/04/13 05:38:11;;;;;;;6.32;1.83;;;;;;;10.84;71.56;100320.94;5056409;28;20128;-75
2021/04/13 05:40:42;;;;;;;9.50;3.08;;;;;;;11.15;71.26;100349.91;5056039;28;20123;-75
2021/04/13 05:43:09;;;;;;;5.22;2.15;;;;;;;11.19;71.38;100346.03;5056649;28;20029;-75
2021/04/13 05:46:00;;;;;;;8.82;3.65;;;;;;;11.02;72.36;100354.75;5055672;28;20021;-75
2021/04/13 05:48:35;;;;;;;13.25;5.70;;;;;;;11.05;72.15;100353.25;5056598;28;20124;-74
2021/04/13 05:51:00;;;;;;;14.48;4.88;;;;;;;11.32;71.69;100349.50;5057071;28;20029;-73
2021/04/13 05:53:26;;;;;;;6.25;3.60;;;;;;;12.50;67.44;100357.47;5055490;28;20025;-74
2021/04/13 05:56:03;;;;;;;7.00;3.15;;;;;;;13.17;64.33;100356.97;5055818;28;20120;-73
2021/04/13 05:58:59;;;;;;;10.50;4.20;;;;;;;13.95;59.56;100349.66;5055343;28;20049;-73
2021/04/13 06:01:31;;;;;;;9.45;2.40;;;;;;;14.98;57.58;100357.50;5052829;28;20124;-73
2021/04/13 06:04:15;;;;;;;6.15;2.53;;;;;;;16.12;54.47;100361.75;5055310;28;20433;-74
2021/04/13 06:06:41;;;;;;;;;;;;;;;15.88;54.08;100359.66;5056396;28;20387;-73
2021/04/13 06:09:06;;;;;;;6.95;2.58;;;;;;;16.63;51.86;100357.84;5055365;28;19908;-73
2021/04/13 06:11:32;;;;;;;8.52;2.70;;;;;;;17.23;49.80;100357.03;5055072;28;20052;-73
2021/04/13 06:14:00;;;;;;;6.80;2.20;;;;;;;17.01;48.98;100358.28;5055318;28;20033;-73
2021/04/13 06:16:38;;;;;;;6.93;2.13;;;;;;;16.36;50.23;100351.00;5055674;28;20033;-73
2021/04/13 06:19:07;;;;;;;7.65;1.80;;;;;;;16.82;48.80;100356.66;5055900;28;20056;-73
2021/04/13 06:21:34;;;;;;;6.82;2.58;;;;;;;17.12;47.39;100350.63;5053820;28;20029;-73
2021/04/13 06:24:00;;;;;;;7.15;2.83;;;;;;;16.74;47.96;100353.06;5054442;28;20044;-73
2021/04/13 06:26:28;;;;;;;9.40;2.10;;;;;;;17.31;47.82;100351.41;5054910;28;20025;-73
2021/04/13 06:28:57;;;;;;;11.00;3.50;;;;;;;17.89;45.22;100344.41;5054697;28;20115;-73
2021/04/13 06:31:23;;;;;;;14.23;8.82;;;;;;;17.97;45.44;100351.63;5054473;28;20029;-74
2021/04/13 06:33:49;;;;;;;15.18;8.57;;;;;;;18.03;45.67;100352.81;5054930;28;20035;-73
2021/04/13 06:36:19;;;;;;;11.45;5.32;;;;;;;18.64;43.85;100352.44;5054443;28;20470;-73
2021/04/13 06:38:48;;;;;;;8.05;2.42;;;;;;;18.01;43.80;100341.97;5054403;28;20491;-73
2021/04/13 06:41:29;;;;;;;8.23;2.63;;;;;;;18.50;42.71;100350.53;5054418;28;20136;-73
2021/04/13 06:44:13;;;;;;;3.72;1.98;;;;;;;19.01;42.49;100358.19;5053876;28;20029;-73
2021/04/13 06:46:56;;;;;;;7.25;2.05;;;;;;;19.65;42.06;100356.78;5054904;28;20039;-73
2021/04/13 06:49:44;;;;;;;7.90;2.28;;;;;;;18.65;42.46;100352.03;5054307;28;20051;-73
2021/04/13 06:53:02;;;;;;;6.65;2.25;;;;;;;20.17;39.99;100358.56;5053819;28;20021;-73
2021/04/13 06:56:05;;;;;;;7.40;2.22;;;;;;;19.45;41.77;100358.59;5049526;28;20091;-72
2021/04/13 06:58:46;;;;;;;7.10;2.42;;;;;;;18.28;42.14;100359.13;5054650;28;20060;-73
2021/04/13 07:01:27;;;;;;;11.85;2.42;;;;;;;19.55;40.54;100354.88;5054046;28;20463;-73
2021/04/13 07:07:38;;;;;;;4.88;1.92;;;;;;;18.65;40.95;100354.84;5043246;28;20132;-73
2021/04/13 07:10:26;;;;;;;5.57;1.63;;;;;;;19.18;40.16;100362.09;5054611;28;20073;-73
2021/04/13 07:13:00;;;;;;;3.17;1.80;;;;;;;20.33;37.52;100362.34;5054797;28;20476;-71
2021/04/13 07:15:32;;;;;;;6.25;2.22;;;;;;;20.72;36.92;100352.53;5053898;28;20033;-73
2021/04/13 07:18:05;;;;;;;4.85;1.65;;;;;;;19.69;38.00;100353.91;5054082;28;20357;-76
2021/04/13 07:20:42;;;;;;;6.53;2.00;;;;;;;20.14;38.17;100360.22;5053411;28;20040;-73
2021/04/13 07:23:10;;;;;;;7.47;2.00;;;;;;;19.82;37.16;100355.00;5054452;28;20432;-73
2021/04/13 07:26:03;;;;;;;5.47;1.67;;;;;;;19.89;37.71;100361.34;5052864;28;20025;-73
2021/04/13 07:28:39;;;;;;;6.63;2.17;;;;;;;19.08;38.74;100371.44;5017356;28;20036;-73
2021/04/13 07:31:18;;;;;;;3.65;1.73;;;;;;;21.10;36.26;100374.94;5053392;28;20309;-72
2021/04/13 07:33:45;;;;;;;9.38;2.05;;;;;;;20.64;35.95;100373.66;5036809;28;20029;-73
2021/04/13 07:36:24;;;;;;;7.03;1.92;;;;;;;19.14;39.14;100378.25;5053535;28;20076;-71
2021/04/13 07:38:53;;;;;;;8.15;2.95;;;;;;;18.27;41.25;100390.50;5053437;28;20464;-72
2021/04/13 07:41:41;;;;;;;5.50;2.05;;;;;;;19.00;39.90;100390.44;5053868;28;20055;-74
2021/04/13 07:44:42;;;;;;;5.78;1.92;;;;;;;19.12;39.02;100391.94;5053313;28;20493;-71
2021/04/13 07:47:31;;;;;;;8.77;2.20;;;;;;;18.99;39.46;100390.84;4986638;28;20064;-73
2021/04/13 07:50:00;;;;;;;8.13;1.70;;;;;;;19.21;39.78;100395.09;5053205;28;20029;-73
2021/04/13 07:53:20;;;;;;;8.05;2.28;;;;;;;18.52;40.36;100401.63;5053690;28;20072;-71
2021/04/13 07:56:03;;;;;;;6.47;2.05;;;;;;;18.63;40.19;100377.00;5029436;28;20039;-72
2021/04/13 07:58:49;;;;;;;6.18;1.88;;;;;;;18.80;38.94;100398.66;5053139;28;20028;-72
2021/04/13 08:01:16;;;;;;;9.98;2.42;;;;;;;18.51;39.07;100405.66;5052811;28;20037;-72
2021/04/13 08:03:41;;;;;;;9.60;1.95;;;;;;;18.15;40.08;100402.22;5052954;28;20040;-72
2021/04/13 08:06:29;;;;;;;7.55;2.55;;;;;;;17.70;40.94;100399.94;5053169;28;20021;-71
2021/04/13 08:09:19;;;;;;;6.28;1.98;;;;;;;17.28;42.35;100407.25;5055047;28;20033;-72
2021/04/13 08:12:05;;;;;;;5.78;2.58;;;;;;;17.16;43.00;100392.81;5053465;28;20431;-72
2021/04/13 08:14:40;;;;;;;5.95;2.15;;;;;;;17.52;42.70;100391.56;5053161;28;20467;-72
2021/04/13 08:17:07;;;;;;;5.35;2.30;;;;;;;17.84;41.68;100403.94;5053007;28;20068;-71
2021/04/13 08:19:36;;;;;;;7.13;2.10;;;;;;;17.86;41.39;100393.91;5052941;28;20467;-73
2021/04/13 08:22:16;;;;;;;6.53;1.80;;;;;;;16.81;42.65;100405.66;5052924;28;20059;-73
2021/04/13 08:24:52;;;;;;;4.55;1.90;;;;;;;16.56;43.34;100408.38;5053946;28;20057;-73
2021/04/13 08:27:35;;;;;;;8.82;2.25;;;;;;;16.55;44.21;100420.03;5053710;28;20475;-73
2021/04/13 08:30:34;;;;;;;8.97;2.67;;;;;;;16.50;44.50;100412.78;5052598;28;20120;-73
2021/04/13 08:33:05;;;;;;;9.43;2.38;;;;;;;16.11;44.80;100384.59;5036886;28;20271;-73
2021/04/13 08:35:36;;;;;;;4.72;1.50;;;;;;;16.51;45.50;100414.38;5053187;28;20133;-74
2021/04/13 08:38:04;;;;;;;5.25;1.45;;;;;;;16.35;45.15;100413.94;5052553;28;20040;-72
2021/04/13 08:40:35;;;;;;;8.70;2.85;;;;;;;15.99;44.80;100397.00;5052339;28;20095;-72
2021/04/13 08:43:10;;;;;;;7.38;2.40;;;;;;;15.65;46.04;100382.38;5052509;28;20029;-72
2021/04/13 08:45:44;;;;;;;11.38;2.35;;;;;;;15.59;46.03;100395.94;5052206;28;20029;-72
2021/04/13 08:48:26;;;;;;;7.07;2.08;;;;;;;15.56;47.28;100405.16;5052705;28;20475;-72
2021/04/13 08:51:16;;;;;;;6.30;2.33;;;;;;;15.86;47.76;100418.97;5052788;28;20037;-72
2021/04/13 08:54:09;;;;;;;7.35;2.22;;;;;;;15.54;48.20;100415.94;5051658;28;20041;-72
2021/04/13 08:56:35;;;;;;;8.50;2.30;;;;;;;15.25;48.01;100416.94;5049356;28;20040;-72
2021/04/13 08:59:06;;;;;;;9.77;2.88;;;;;;;15.25;48.92;100428.16;5053375;28;20041;-73
2021/04/13 09:01:44;;;;;;;10.20;2.22;;;;;;;14.94;51.08;100419.09;5055385;28;20029;-73
2021/04/13 09:04:27;;;;;;;8.63;2.40;;;;;;;14.63;53.36;100432.41;5056075;28;20100;-72
2021/04/13 09:07:05;;;;;;;8.38;2.50;;;;;;;14.51;55.07;100431.88;5056461;28;20087;-72
2021/04/13 09:09:57;;;;;;;6.72;2.17;;;;;;;13.92;58.92;100434.34;5052946;28;20025;-72
2021/04/13 09:12:31;;;;;;;10.10;2.67;;;;;;;14.02;59.78;100441.28;5052549;28;20375;-72
2021/04/13 09:15:18;;;;;;;7.70;3.20;;;;;;;13.96;58.76;100440.81;5052187;28;20025;-72
2021/04/13 09:17:50;;;;;;;6.38;2.15;;;;;;;13.76;60.09;100444.91;5052919;28;20044;-72
2021/04/13 09:20:37;;;;;;;11.15;2.35;;;;;;;13.67;61.28;100447.16;5052224;28;20489;-72
2021/04/13 09:23:20;;;;;;;13.75;3.17;;;;;;;13.73;62.49;100446.47;5052580;28;20134;-72
2021/04/13 09:26:11;;;;;;;8.18;2.70;;;;;;;13.36;64.83;100454.69;5052833;28;20337;-73
2021/04/13 09:28:56;;;;;;;9.85;2.45;;;;;;;13.48;66.34;100446.13;5053626;28;20491;-72
2021/04/13 09:31:44;;;;;;;14.43;3.50;;;;;;;13.41;67.38;100443.19;5051929;28;20529;-72
2021/04/13 09:34:42;;;;;;;7.72;3.42;;;;;;;13.19;68.85;100439.22;5053230;28;20021;-72
2021/04/13 09:37:17;;;;;;;12.10;2.42;;;;;;;13.40;68.90;100437.97;5046115;28;20033;-72
2021/04/13 09:39:56;;;;;;;5.30;2.30;;;;;;;13.07;69.56;100448.59;5051883;28;20025;-72
2021/04/13 09:43:08;;;;;;;8.82;2.53;;;;;;;13.06;70.42;100430.25;5051759;28;20033;-72
2021/04/13 09:45:48;;;;;;;6.90;2.60;;;;;;;12.96;70.49;100442.03;5032260;28;20037;-72
2021/04/13 09:48:51;;;;;;;9.43;3.28;;;;;;;12.78;70.30;100430.56;5052360;28;20028;-72
2021/04/13 09:51:38;;;;;;;8.35;2.63;;;;;;;12.73;71.16;100419.72;5052608;28;20021;-71
2021/04/13 09:54:30;;;;;;;8.68;2.28;;;;;;;12.98;71.48;100434.09;5051997;28;20095;-72
2021/04/13 09:57:08;;;;;;;10.80;2.88;;;;;;;13.19;70.55;100422.47;5052888;28;20088;-72
2021/04/13 10:00:01;;;;;;;13.30;4.15;;;;;;;13.38;70.75;100418.81;5055836;28;20029;-72
2021/04/13 10:02:54;;;;;;;11.98;4.00;;;;;;;13.59;71.39;100409.94;5055165;28;20021;-72
2021/04/13 10:05:36;;;;;;;9.02;3.08;;;;;;;13.98;70.68;100413.25;5055211;28;20068;-72
2021/04/13 10:08:22;;;;;;;6.00;2.67;;;;;;;14.11;69.21;100417.41;5055710;28;20048;-72
2021/04/13 10:10:53;;;;;;;8.65;3.97;;;;;;;13.92;70.14;100413.97;5054097;28;20041;-72
2021/04/13 10:13:40;;;;;;;14.30;5.28;;;;;;;14.10;70.12;100418.56;5055867;28;20033;-72
2021/04/13 10:16:42;;;;;;;15.25;5.00;;;;;;;13.53;68.89;100412.25;5054952;28;20036;-72
2021/04/13 10:19:39;;;;;;;9.52;3.88;;;;;;;13.64;69.83;100415.19;5054931;28;20083;-72
2021/04/13 10:22:23;;;;;;;9.05;4.60;;;;;;;13.91;68.58;100415.16;5055065;28;20387;-72
2021/04/13 10:25:04;;;;;;;6.55;4.63;;;;;;;13.92;67.65;100386.00;5054359;28;20044;-72
2021/04/13 10:27:53;;;;;;;6.75;2.90;;;;;;;14.18;66.05;100402.69;5055336;28;20379;-73
2021/04/13 10:30:36;;;;;;;7.88;3.50;;;;;;;14.27;65.99;100391.97;5054772;28;20040;-73
2021/04/13 10:34:10;;;;;;;7.93;2.38;;;;;;;14.83;64.60;100412.59;5054647;28;20555;-72
2021/04/13 10:36:55;;;;;;;7.90;3.40;;;;;;;14.81;64.97;100403.78;4978021;28;20038;-72
2021/04/13 10:39:39;;;;;;;9.43;2.85;;;;;;;14.42;65.68;100399.34;5048613;28;20037;-73
2021/04/13 10:42:32;;;;;;;8.93;3.60;;;;;;;14.13;66.08;100406.63;5054419;28;20052;-72
2021/04/13 10:45:19;;;;;;;12.32;3.25;;;;;;;13.99;66.83;100408.44;5055042;28;20532;-73
2021/04/13 10:48:02;;;;;;;13.55;6.18;;;;;;;14.09;67.48;100422.56;5054394;28;20066;-73
2021/04/13 10:50:42;;;;;;;8.23;3.38;;;;;;;14.39;67.24;100424.53;5055603;28;20025;-73
2021/04/13 10:53:20;;;;;;;8.02;2.38;;;;;;;13.09;64.36;100379.19;5055231;28;20123;-73
2021/04/13 10:56:23;;;;;;;7.28;3.30;;;;;;;13.41;65.64;100420.81;5054356;28;20037;-73
2021/04/13 10:59:16;;;;;;;7.07;2.63;;;;;;;13.62;63.46;100418.34;5054184;28;20071;-73
2021/04/13 11:01:48;;;;;;;6.50;2.35;;;;;;;13.49;65.78;100396.59;5054422;28;20103;-73
2021/04/13 11:04:42;;;;;;;3.97;2.35;;;;;;;13.85;64.18;100411.88;5057470;28;20493;-74
2021/04/13 11:07:22;;;;;;;7.65;2.83;;;;;;;13.48;62.43;100379.03;5056412;28;20052;-74
2021/04/13 11:09:57;;;;;;;3.97;2.80;;;;;;;13.98;62.32;100413.25;5055078;28;20064;-73
2021/04/13 11:12:38;;;;;;;3.97;1.85;;;;;;;13.90;61.25;100405.94;5056761;28;20029;-74
2021/04/13 11:15:44;;;;;;;6.47;3.10;;;;;;;13.80;63.89;100401.84;5057493;28;20471;-74
2021/04/13 11:18:31;;;;;;;4.53;2.72;;;;;;;14.29;63.16;100405.63;5054430;28;20025;-73
2021/04/13 11:21:27;;;;;;;8.23;2.40;;;;;;;15.05;60.65;100408.78;5054722;28;20033;-73
2021/04/13 11:24:11;;;;;;;4.95;1.90;;;;;;;15.49;59.06;100399.47;5055117;28;20049;-73
2021/04/13 11:26:55;;;;;;;6.10;2.67;;;;;;;15.78;58.09;100389.28;5054046;28;20024;-73
2021/04/13 11:29:35;;;;;;;;;;;;;;;16.18;54.61;100382.59;5056083;28;20037;-73
2021/04/13 11:32:22;;;;;;;5.88;2.67;;;;;;;16.61;54.23;100385.50;5057152;28;19908;-73
2021/04/13 11:35:20;;;;;;;4.85;1.85;;;;;;;16.74;53.63;100395.22;5053620;28;20040;-73
2021/04/13 11:37:52;;;;;;;6.28;2.40;;;;;;;16.29;53.79;100393.88;5054058;28;20029;-73
2021/04/13 11:40:53;;;;;;;6.70;2.28;;;;;;;16.15;53.89;100397.44;5053397;28;20118;-73
2021/04/13 11:43:23;;;;;;;5.65;2.42;;;;;;;16.02;53.59;100392.56;5023373;28;20152;-73
2021/04/13 11:46:02;;;;;;;11.63;2.85;;;;;;;15.60;54.96;100372.31;5053633;28;20036;-73
2021/04/13 11:48:49;;;;;;;7.82;2.63;;;;;;;15.58;55.50;100394.34;5053194;28;20475;-73
2021/04/13 11:51:17;;;;;;;6.85;1.90;;;;;;;15.98;53.76;100398.19;5053231;28;20063;-73
2021/04/13 11:53:49;;;;;;;11.82;2.65;;;;;;;16.37;52.02;100401.13;5053135;28;20032;-73
2021/04/13 11:56:21;;;;;;;4.93;2.22;;;;;;;17.26;49.87;100411.69;5053205;28;20060;-73
2021/04/13 11:59:20;;;;;;;5.95;2.47;;;;;;;17.44;48.61;100391.97;5053192;28;20060;-74
2021/04/13 12:01:47;;;;;;;8.23;2.92;;;;;;;17.75;47.98;100396.75;5054249;28;20047;-73
2021/04/13 12:04:20;;;;;;;8.07;2.95;;;;;;;17.99;48.21;100394.25;5053543;28;20032;-73
2021/04/13 12:07:03;;;;;;;5.90;2.22;;;;;;;18.14;45.66;100395.78;5052979;28;20036;-73
2021/04/13 12:10:00;;;;;;;6.70;2.47;;;;;;;18.51;45.51;100397.22;5054508;28;20024;-73
2021/04/13 12:12:31;;;;;;;7.43;2.15;;;;;;;18.20;47.02;100388.50;5054047;28;20371;-73
2021/04/13 12:15:03;;;;;;;8.48;2.17;;;;;;;18.42;46.10;100402.47;5052810;28;20036;-72
2021/04/13 12:17:36;;;;;;;6.00;2.25;;;;;;;18.14;45.11;100375.28;5052799;28;20030;-72
2021/04/13 12:20:20;;;;;;;8.15;2.95;;;;;;;18.25;44.74;100396.53;5053300;28;20047;-72
2021/04/13 12:22:46;;;;;;;9.43;2.72;;;;;;;18.04;46.68;100403.06;5052884;28;20487;-73
2021/04/13 12:25:35;;;;;;;8.23;2.50;;;;;;;17.78;48.08;100410.00;5054032;28;20136;-72
2021/04/13 12:28:13;;;;;;;5.70;2.15;;;;;;;17.82;47.98;100407.19;5052578;28;20503;-72
2021/04/13 12:30:42;;;;;;;9.40;2.53;;;;;;;17.25;48.73;100399.63;5052613;28;20068;-73
2021/04/13 12:33:27;;;;;;;7.03;2.22;;;;;;;17.42;48.82;100417.69;5053373;28;20025;-72
2021/04/13 12:35:55;;;;;;;7.78;2.42;;;;;;;17.19;49.44;100415.28;5051611;28;20037;-72
2021/04/13 12:38:45;;;;;;;7.38;2.22;;;;;;;16.81;50.95;100410.47;5052554;28;20560;-72
2021/04/13 12:41:17;;;;;;;9.65;2.50;;;;;;;16.94;49.43;100414.50;5053068;28;20055;-72
2021/04/13 12:43:45;;;;;;;5.78;1.77;;;;;;;16.97;48.10;100385.59;5052440;28;20071;-72